createdAt,value
2022-12-05T00:00:19.276Z,952.67
2022-12-05T00:02:50.409Z,952.65
2022-12-05T00:03:50.426Z,952.72
2022-12-05T00:04:50.408Z,952.64
2022-12-05T00:05:50.371Z,952.64
2022-12-05T00:06:50.375Z,952.64
2022-12-05T00:07:50.414Z,952.64
2022-12-05T00:08:50.377Z,952.64
2022-12-05T00:09:50.397Z,952.62
2022-12-05T00:10:50.378Z,952.65
2022-12-05T00:11:50.438Z,952.64
2022-12-05T00:12:50.382Z,952.66
2022-12-05T00:13:50.380Z,952.69
2022-12-05T00:14:50.488Z,952.66
2022-12-05T00:15:52.302Z,952.67
2022-12-05T00:16:54.496Z,952.64
2022-12-05T00:17:57.290Z,952.6
2022-12-05T00:18:59.294Z,952.63
2022-12-05T00:20:01.751Z,952.6
2022-12-05T00:21:03.298Z,952.55
2022-12-05T00:22:05.292Z,952.55
2022-12-05T00:23:07.306Z,952.55
2022-12-05T00:24:09.296Z,952.54
2022-12-05T00:25:11.279Z,952.56
2022-12-05T00:26:13.337Z,952.55
2022-12-05T00:27:15.302Z,952.56
2022-12-05T00:28:17.312Z,952.58
2022-12-05T00:29:19.296Z,952.56
2022-12-05T00:30:22.318Z,952.54
2022-12-05T00:31:25.398Z,952.56
2022-12-05T00:32:27.334Z,952.54
2022-12-05T00:33:29.307Z,952.57
2022-12-05T00:34:31.303Z,952.57
2022-12-05T00:35:46.468Z,952.58
2022-12-05T00:36:35.309Z,952.53
2022-12-05T00:37:37.301Z,952.56
2022-12-05T00:38:39.308Z,952.59
2022-12-05T00:39:41.315Z,952.61
2022-12-05T00:40:43.357Z,952.63
2022-12-05T00:41:45.311Z,952.65
2022-12-05T00:42:52.006Z,952.64
2022-12-05T00:43:49.363Z,952.63
2022-12-05T00:44:51.306Z,952.64
2022-12-05T00:45:53.387Z,952.65
2022-12-05T00:46:55.304Z,952.67
2022-12-05T00:47:57.312Z,952.7
2022-12-05T00:49:01.178Z,952.71
2022-12-05T00:50:02.310Z,952.69
2022-12-05T00:51:05.312Z,952.73
2022-12-05T00:52:07.317Z,952.72
2022-12-05T00:53:09.314Z,952.66
2022-12-05T00:54:11.321Z,952.72
2022-12-05T00:55:14.309Z,952.73
2022-12-05T00:56:16.364Z,952.72
2022-12-05T00:57:18.319Z,952.71
2022-12-05T00:58:20.317Z,952.71
2022-12-05T00:59:22.357Z,952.73
2022-12-05T01:00:26.319Z,952.69
2022-12-05T01:01:28.437Z,952.74
2022-12-05T01:02:30.336Z,952.72
2022-12-05T01:03:32.414Z,952.74
2022-12-05T01:04:34.322Z,952.8
2022-12-05T01:05:36.317Z,952.82
2022-12-05T01:06:38.326Z,952.83
2022-12-05T01:07:40.403Z,952.84
2022-12-05T01:08:42.322Z,952.85
2022-12-05T01:09:44.325Z,952.87
2022-12-05T01:10:47.343Z,952.86
2022-12-05T01:11:49.326Z,952.9
2022-12-05T01:12:52.347Z,952.95
2022-12-05T01:13:54.325Z,952.93
2022-12-05T01:14:56.339Z,952.97
2022-12-05T01:15:59.340Z,952.97
2022-12-05T01:17:01.385Z,952.99
2022-12-05T01:18:03.362Z,953.01
2022-12-05T01:19:05.331Z,953.02
2022-12-05T01:20:07.329Z,953.02
2022-12-05T01:21:09.321Z,953
2022-12-05T01:22:11.330Z,953.03
2022-12-05T01:23:13.364Z,953.03
2022-12-05T01:24:15.337Z,953.05
2022-12-05T01:25:17.331Z,953.07
2022-12-05T01:26:19.337Z,953.1
2022-12-05T01:27:22.363Z,953.09
2022-12-05T01:28:25.424Z,953.09
2022-12-05T01:29:27.344Z,953.09
2022-12-05T01:30:29.369Z,953.11
2022-12-05T01:31:31.498Z,953.14
2022-12-05T01:32:33.340Z,953.1
2022-12-05T01:33:35.340Z,953.09
2022-12-05T01:34:37.337Z,953.16
2022-12-05T01:35:39.341Z,953.14
2022-12-05T01:36:41.421Z,953.09
2022-12-05T01:37:44.340Z,953.12
2022-12-05T01:38:46.340Z,953.16
2022-12-05T01:39:48.341Z,953.13
2022-12-05T01:40:50.342Z,953.12
2022-12-05T01:41:52.347Z,953.1
2022-12-05T01:42:54.346Z,953.1
2022-12-05T01:43:56.340Z,953.14
2022-12-05T01:44:58.347Z,953.16
2022-12-05T01:46:01.210Z,953.06
2022-12-05T01:47:02.352Z,953.1
2022-12-05T01:48:04.354Z,953.1
2022-12-05T01:49:07.345Z,953.08
2022-12-05T01:50:09.353Z,953.1
2022-12-05T01:51:11.341Z,953.13
2022-12-05T01:52:13.349Z,953.14
2022-12-05T01:53:16.345Z,953.18
2022-12-05T01:54:18.397Z,953.19
2022-12-05T01:55:20.354Z,953.18
2022-12-05T01:56:22.369Z,953.16
2022-12-05T01:57:25.361Z,953.18
2022-12-05T01:58:27.360Z,953.22
2022-12-05T01:59:29.382Z,953.21
2022-12-05T02:01:34.526Z,953.17
2022-12-05T02:02:37.412Z,953.15
2022-12-05T02:03:39.362Z,953.17
2022-12-05T02:04:41.401Z,953.18
2022-12-05T02:05:43.359Z,953.15
2022-12-05T02:06:45.357Z,953.21
2022-12-05T02:07:47.451Z,953.23
2022-12-05T02:08:49.360Z,953.21
2022-12-05T02:09:51.374Z,953.19
2022-12-05T02:10:53.360Z,953.16
2022-12-05T02:11:55.365Z,953.15
2022-12-05T02:12:58.397Z,953.16
2022-12-05T02:14:01.169Z,953.16
2022-12-05T02:15:02.353Z,953.16
2022-12-05T02:16:04.459Z,953.11
2022-12-05T02:17:06.376Z,953.15
2022-12-05T02:18:09.397Z,953.15
2022-12-05T02:19:12.407Z,953.2
2022-12-05T02:20:14.368Z,953.19
2022-12-05T02:21:16.379Z,953.2
2022-12-05T02:22:18.372Z,953.22
2022-12-05T02:23:20.393Z,953.19
2022-12-05T02:24:26.389Z,953.24
2022-12-05T02:25:28.374Z,953.23
2022-12-05T02:26:30.377Z,953.21
2022-12-05T02:27:32.372Z,953.19
2022-12-05T02:28:34.377Z,953.18
2022-12-05T02:29:36.400Z,953.2
2022-12-05T02:30:38.375Z,953.22
2022-12-05T02:31:40.450Z,953.19
2022-12-05T02:32:42.388Z,953.15
2022-12-05T02:33:44.372Z,953.17
2022-12-05T02:34:47.421Z,953.2
2022-12-05T02:35:49.412Z,953.17
2022-12-05T02:37:53.384Z,953.24
2022-12-05T02:38:55.382Z,953.26
2022-12-05T02:39:57.805Z,953.25
2022-12-05T02:40:59.381Z,953.24
2022-12-05T02:42:01.404Z,953.3
2022-12-05T02:43:03.382Z,953.26
2022-12-05T02:44:05.470Z,953.3
2022-12-05T02:45:07.406Z,953.23
2022-12-05T02:46:09.492Z,953.23
2022-12-05T02:47:11.388Z,953.24
2022-12-05T02:48:13.417Z,953.2
2022-12-05T02:49:15.398Z,953.26
2022-12-05T02:50:17.401Z,953.24
2022-12-05T02:51:19.390Z,953.22
2022-12-05T02:52:22.405Z,953.25
2022-12-05T02:53:25.397Z,953.31
2022-12-05T02:54:27.445Z,953.28
2022-12-05T02:55:29.425Z,953.27
2022-12-05T02:56:31.389Z,953.29
2022-12-05T02:57:33.404Z,953.37
2022-12-05T02:58:35.398Z,953.35
2022-12-05T02:59:37.406Z,953.35
2022-12-05T03:00:39.409Z,953.34
2022-12-05T03:02:43.406Z,953.32
2022-12-05T03:03:45.428Z,953.33
2022-12-05T03:04:47.435Z,953.34
2022-12-05T03:05:49.389Z,953.26
2022-12-05T03:06:52.402Z,953.24
2022-12-05T03:07:54.462Z,953.22
2022-12-05T03:08:56.396Z,953.29
2022-12-05T03:09:58.618Z,953.26
2022-12-05T03:11:01.124Z,953.29
2022-12-05T03:12:02.414Z,953.31
2022-12-05T03:13:04.406Z,953.33
2022-12-05T03:14:06.405Z,953.33
2022-12-05T03:15:08.417Z,953.37
2022-12-05T03:16:10.455Z,953.36
2022-12-05T03:17:12.456Z,953.41
2022-12-05T03:18:14.412Z,953.41
2022-12-05T03:19:16.432Z,953.42
2022-12-05T03:20:18.407Z,953.42
2022-12-05T03:21:20.406Z,953.41
2022-12-05T03:22:22.421Z,953.4
2022-12-05T03:23:50.503Z,953.38
2022-12-05T03:24:50.502Z,953.38
2022-12-05T03:25:50.538Z,953.42
2022-12-05T03:26:50.543Z,953.44
2022-12-05T03:27:50.502Z,953.43
2022-12-05T03:28:50.503Z,953.45
2022-12-05T03:29:50.519Z,953.46
2022-12-05T03:30:50.589Z,953.45
2022-12-05T03:31:50.518Z,953.48
2022-12-05T03:32:50.517Z,953.5
2022-12-05T03:33:50.511Z,953.45
2022-12-05T03:34:50.513Z,953.52
2022-12-05T03:35:50.619Z,953.55
2022-12-05T03:36:52.419Z,953.57
2022-12-05T03:37:54.460Z,953.58
2022-12-05T03:38:56.423Z,953.57
2022-12-05T03:39:58.597Z,953.6
2022-12-05T03:41:01.192Z,953.63
2022-12-05T03:42:03.421Z,953.63
2022-12-05T03:43:05.442Z,953.64
2022-12-05T03:44:07.424Z,953.69
2022-12-05T03:45:09.431Z,953.68
2022-12-05T03:46:12.528Z,953.7
2022-12-05T03:47:14.430Z,953.72
2022-12-05T03:48:17.452Z,953.71
2022-12-05T03:49:19.434Z,953.7
2022-12-05T03:50:22.451Z,953.75
2022-12-05T03:51:25.465Z,953.75
2022-12-05T03:52:27.427Z,953.78
2022-12-05T03:53:29.473Z,953.77
2022-12-05T03:54:31.431Z,953.76
2022-12-05T03:55:33.464Z,953.79
2022-12-05T03:56:35.432Z,953.84
2022-12-05T03:57:37.436Z,953.83
2022-12-05T03:58:39.444Z,953.83
2022-12-05T03:59:41.460Z,953.83
2022-12-05T04:00:43.436Z,953.8
2022-12-05T04:01:45.541Z,953.8
2022-12-05T04:02:47.442Z,953.79
2022-12-05T04:03:49.563Z,953.76
2022-12-05T04:04:51.479Z,953.75
2022-12-05T04:05:53.485Z,953.74
2022-12-05T04:06:55.439Z,953.74
2022-12-05T04:07:57.525Z,953.76
2022-12-05T04:09:01.170Z,953.76
2022-12-05T04:10:02.446Z,953.76
2022-12-05T04:11:04.540Z,953.75
2022-12-05T04:12:06.465Z,953.74
2022-12-05T04:13:08.442Z,953.77
2022-12-05T04:14:10.443Z,953.77
2022-12-05T04:15:12.439Z,953.78
2022-12-05T04:16:14.582Z,953.81
2022-12-05T04:17:16.447Z,953.81
2022-12-05T04:18:18.450Z,953.81
2022-12-05T04:19:20.443Z,953.81
2022-12-05T04:20:22.472Z,953.84
2022-12-05T04:21:26.472Z,953.85
2022-12-05T04:22:28.461Z,953.85
2022-12-05T04:23:30.485Z,953.87
2022-12-05T04:24:32.467Z,953.88
2022-12-05T04:25:34.493Z,953.86
2022-12-05T04:26:36.442Z,953.84
2022-12-05T04:27:38.458Z,953.84
2022-12-05T04:28:40.454Z,953.85
2022-12-05T04:29:42.468Z,953.87
2022-12-05T04:30:44.505Z,953.85
2022-12-05T04:31:46.455Z,953.91
2022-12-05T04:32:48.460Z,953.88
2022-12-05T04:33:50.470Z,953.89
2022-12-05T04:34:52.501Z,953.89
2022-12-05T04:35:54.481Z,953.9
2022-12-05T04:36:56.468Z,953.91
2022-12-05T04:37:58.460Z,953.89
2022-12-05T04:39:04.707Z,953.92
2022-12-05T04:40:03.461Z,953.93
2022-12-05T04:41:05.523Z,953.96
2022-12-05T04:42:07.465Z,953.99
2022-12-05T04:43:09.501Z,954.01
2022-12-05T04:44:11.464Z,954.06
2022-12-05T04:45:13.468Z,954.05
2022-12-05T04:46:15.518Z,954.08
2022-12-05T04:47:18.489Z,954.09
2022-12-05T04:48:20.469Z,954.08
2022-12-05T04:49:22.491Z,954.07
2022-12-05T04:50:26.477Z,954.07
2022-12-05T04:51:29.475Z,954.09
2022-12-05T04:52:31.468Z,954.13
2022-12-05T04:53:33.466Z,954.13
2022-12-05T04:54:35.484Z,954.16
2022-12-05T04:55:37.471Z,954.16
2022-12-05T04:56:39.476Z,954.18
2022-12-05T04:57:41.469Z,954.2
2022-12-05T04:58:43.470Z,954.22
2022-12-05T04:59:45.471Z,954.2
2022-12-05T05:00:47.472Z,954.18
2022-12-05T05:01:49.570Z,954.17
2022-12-05T05:02:51.592Z,954.16
2022-12-05T05:03:53.475Z,954.2
2022-12-05T05:04:55.475Z,954.19
2022-12-05T05:06:50.589Z,954.24
2022-12-05T05:07:50.675Z,954.26
2022-12-05T05:08:50.607Z,954.26
2022-12-05T05:09:50.579Z,954.29
2022-12-05T05:10:50.573Z,954.3
2022-12-05T05:11:50.617Z,954.32
2022-12-05T05:12:50.580Z,954.31
2022-12-05T05:13:50.596Z,954.31
2022-12-05T05:14:50.581Z,954.27
2022-12-05T05:15:50.666Z,954.28
2022-12-05T05:16:50.609Z,954.28
2022-12-05T05:17:58.437Z,954.3
2022-12-05T05:18:50.591Z,954.29
2022-12-05T05:20:50.585Z,954.31
2022-12-05T05:21:50.599Z,954.26
2022-12-05T05:22:50.588Z,954.24
2022-12-05T05:23:50.587Z,954.23
2022-12-05T05:24:50.591Z,954.25
2022-12-05T05:25:50.577Z,954.25
2022-12-05T05:26:56.913Z,954.26
2022-12-05T05:28:01.893Z,954.27
2022-12-05T05:29:50.598Z,954.28
2022-12-05T05:30:50.722Z,954.31
2022-12-05T05:31:51.604Z,954.29
2022-12-05T05:32:53.602Z,954.31
2022-12-05T05:33:55.611Z,954.39
2022-12-05T05:34:57.606Z,954.32
2022-12-05T05:35:59.649Z,954.36
2022-12-05T05:37:50.601Z,954.35
2022-12-05T05:38:50.611Z,954.35
2022-12-05T05:39:50.597Z,954.37
2022-12-05T05:40:50.648Z,954.37
2022-12-05T05:41:50.635Z,954.37
2022-12-05T05:42:50.669Z,954.35
2022-12-05T05:43:50.599Z,954.38
2022-12-05T05:46:50.747Z,954.27
2022-12-05T05:48:42.343Z,954.26
2022-12-05T05:49:44.342Z,954.27
2022-12-05T05:50:46.341Z,954.29
2022-12-05T05:51:48.343Z,954.32
2022-12-05T05:52:50.355Z,954.32
2022-12-05T05:53:52.343Z,954.35
2022-12-05T05:55:57.345Z,954.31
2022-12-05T05:56:59.350Z,954.39
2022-12-05T05:58:01.344Z,954.4
2022-12-05T05:59:03.352Z,954.46
2022-12-05T06:01:07.558Z,954.54
2022-12-05T06:02:09.556Z,954.59
2022-12-05T06:03:11.828Z,954.62
2022-12-05T06:04:13.612Z,954.64
2022-12-05T06:05:15.573Z,954.67
2022-12-05T06:06:17.558Z,954.69
2022-12-05T06:07:19.563Z,954.69
2022-12-05T06:08:21.646Z,954.72
2022-12-05T06:09:23.561Z,954.7
2022-12-05T06:10:25.568Z,954.71
2022-12-05T06:11:27.581Z,954.73
2022-12-05T06:12:29.568Z,954.76
2022-12-05T06:13:31.570Z,954.77
2022-12-05T06:14:33.578Z,954.78
2022-12-05T06:15:37.617Z,954.83
2022-12-05T06:16:40.646Z,954.85
2022-12-05T06:17:42.575Z,954.86
2022-12-05T06:18:44.632Z,954.87
2022-12-05T06:19:46.584Z,954.85
2022-12-05T06:20:48.618Z,954.82
2022-12-05T06:21:50.624Z,954.83
2022-12-05T06:22:52.582Z,954.87
2022-12-05T06:23:54.572Z,954.86
2022-12-05T06:24:56.608Z,954.84
2022-12-05T06:25:58.581Z,954.87
2022-12-05T06:27:01.178Z,954.84
2022-12-05T06:28:02.582Z,954.86
2022-12-05T06:29:04.583Z,954.89
2022-12-05T06:30:06.594Z,954.86
2022-12-05T06:31:08.658Z,954.9
2022-12-05T06:32:10.580Z,954.88
2022-12-05T06:34:14.623Z,954.89
2022-12-05T06:35:16.570Z,954.86
2022-12-05T06:36:18.580Z,954.84
2022-12-05T06:37:20.592Z,954.88
2022-12-05T06:38:22.592Z,954.88
2022-12-05T06:39:24.590Z,954.91
2022-12-05T06:40:26.590Z,954.85
2022-12-05T06:41:28.586Z,954.86
2022-12-05T06:42:50.679Z,954.85
2022-12-05T06:43:50.649Z,954.85
2022-12-05T06:44:50.638Z,954.87
2022-12-05T06:45:50.686Z,954.87
2022-12-05T06:47:50.662Z,954.86
2022-12-05T06:49:46.630Z,954.89
2022-12-05T06:50:48.583Z,954.85
2022-12-05T06:51:50.619Z,954.89
2022-12-05T06:52:52.614Z,954.93
2022-12-05T06:53:54.653Z,954.9
2022-12-05T06:54:56.598Z,954.89
2022-12-05T06:55:58.632Z,954.9
2022-12-05T06:57:01.148Z,954.92
2022-12-05T06:58:02.632Z,954.9
2022-12-05T06:59:04.602Z,954.91
2022-12-05T07:00:50.762Z,954.93
2022-12-05T07:01:50.776Z,954.95
2022-12-05T07:02:50.731Z,954.95
2022-12-05T07:03:50.666Z,954.92
2022-12-05T07:04:50.732Z,954.94
2022-12-05T07:05:50.702Z,954.96
2022-12-05T07:06:51.276Z,954.94
2022-12-05T07:07:50.724Z,954.97
2022-12-05T07:08:50.654Z,955.01
2022-12-05T07:09:50.684Z,955.03
2022-12-05T07:10:50.660Z,955.03
2022-12-05T07:11:50.690Z,955.02
2022-12-05T07:12:50.654Z,954.99
2022-12-05T07:13:50.653Z,955.01
2022-12-05T07:17:51.121Z,955
2022-12-05T07:18:53.102Z,955.02
2022-12-05T07:19:55.325Z,955.06
2022-12-05T07:21:11.804Z,955.1
2022-12-05T07:21:59.110Z,955.11
2022-12-05T07:25:22.884Z,955.11
2022-12-05T07:26:25.919Z,955.1
2022-12-05T07:27:28.454Z,955.07
2022-12-05T07:28:29.876Z,955.1
2022-12-05T07:29:31.874Z,955.08
2022-12-05T07:30:33.883Z,955.07
2022-12-05T07:31:37.020Z,955.05
2022-12-05T07:32:38.888Z,955.09
2022-12-05T07:33:40.898Z,955.04
2022-12-05T07:34:42.882Z,955.07
2022-12-05T07:35:44.886Z,955.1
2022-12-05T07:36:46.930Z,955.06
2022-12-05T07:37:48.888Z,955.05
2022-12-05T07:38:51.048Z,955.04
2022-12-05T07:39:53.911Z,955.09
2022-12-05T07:40:56.899Z,955.07
2022-12-05T07:41:58.882Z,955.08
2022-12-05T07:43:01.167Z,955.07
2022-12-05T07:44:02.925Z,955.04
2022-12-05T07:45:04.914Z,955.06
2022-12-05T07:46:07.009Z,955.05
2022-12-05T07:47:08.889Z,955.06
2022-12-05T07:48:14.483Z,955.06
2022-12-05T07:49:12.890Z,955.04
2022-12-05T07:50:14.896Z,955.06
2022-12-05T07:51:17.896Z,955.02
2022-12-05T07:52:19.931Z,955
2022-12-05T07:53:21.910Z,955.02
2022-12-05T07:54:24.896Z,954.98
2022-12-05T07:55:26.890Z,955.03
2022-12-05T07:57:30.903Z,955.01
2022-12-05T07:58:32.902Z,955.03
2022-12-05T07:59:34.917Z,955.04
2022-12-05T08:00:36.943Z,955.02
2022-12-05T08:01:38.968Z,955.02
2022-12-05T08:02:41.988Z,955.06
2022-12-05T08:03:43.909Z,955.07
2022-12-05T08:04:45.929Z,955.09
2022-12-05T08:05:47.900Z,955.13
2022-12-05T08:06:49.964Z,955.11
2022-12-05T08:07:52.034Z,955.09
2022-12-05T08:08:53.952Z,955.09
2022-12-05T08:09:57.211Z,955.12
2022-12-05T08:10:58.913Z,955.11
2022-12-05T08:12:01.157Z,955.18
2022-12-05T08:13:03.916Z,955.14
2022-12-05T08:14:53.525Z,955.14
2022-12-05T08:16:11.574Z,955.15
2022-12-05T08:16:50.853Z,955.14
2022-12-05T08:17:50.744Z,955.14
2022-12-05T08:18:50.701Z,955.17
2022-12-05T08:19:50.741Z,955.25
2022-12-05T08:20:50.724Z,955.25
2022-12-05T08:21:50.709Z,955.25
2022-12-05T08:22:50.754Z,955.23
2022-12-05T08:23:50.711Z,955.2
2022-12-05T08:24:56.127Z,955.21
2022-12-05T08:25:50.709Z,955.17
2022-12-05T08:26:50.716Z,955.21
2022-12-05T08:27:50.749Z,955.24
2022-12-05T08:28:50.714Z,955.26
2022-12-05T08:29:50.722Z,955.28
2022-12-05T08:30:50.744Z,955.27
2022-12-05T08:31:50.717Z,955.31
2022-12-05T08:32:50.733Z,955.3
2022-12-05T08:33:55.536Z,955.34
2022-12-05T08:34:50.715Z,955.37
2022-12-05T08:35:51.602Z,955.39
2022-12-05T08:36:53.600Z,955.44
2022-12-05T08:38:50.915Z,955.46
2022-12-05T08:39:50.719Z,955.49
2022-12-05T08:40:50.718Z,955.49
2022-12-05T08:41:50.710Z,955.51
2022-12-05T08:42:50.725Z,955.56
2022-12-05T08:43:50.751Z,955.56
2022-12-05T08:44:50.721Z,955.53
2022-12-05T08:45:50.766Z,955.51
2022-12-05T08:46:50.724Z,955.54
2022-12-05T08:47:50.727Z,955.53
2022-12-05T08:48:50.912Z,955.54
2022-12-05T08:49:50.720Z,955.54
2022-12-05T08:50:50.727Z,955.65
2022-12-05T08:51:50.725Z,955.64
2022-12-05T08:52:50.730Z,955.65
2022-12-05T08:53:50.775Z,955.72
2022-12-05T08:54:50.751Z,955.74
2022-12-05T08:55:50.736Z,955.76
2022-12-05T08:56:50.727Z,955.79
2022-12-05T08:57:50.738Z,955.82
2022-12-05T08:58:50.750Z,955.85
2022-12-05T08:59:50.762Z,955.87
2022-12-05T09:00:50.736Z,955.85
2022-12-05T09:01:50.802Z,955.89
2022-12-05T09:02:50.791Z,955.92
2022-12-05T09:03:51.617Z,955.91
2022-12-05T09:04:54.072Z,955.95
2022-12-05T09:05:55.629Z,955.94
2022-12-05T09:06:59.624Z,955.96
2022-12-05T09:08:02.658Z,956
2022-12-05T09:09:04.677Z,956.06
2022-12-05T09:10:06.664Z,956.07
2022-12-05T09:11:08.620Z,956.06
2022-12-05T09:12:10.621Z,956.07
2022-12-05T09:13:12.621Z,956.07
2022-12-05T09:14:14.620Z,956.12
2022-12-05T09:15:16.619Z,956.12
2022-12-05T09:16:18.724Z,956.15
2022-12-05T09:17:20.620Z,956.12
2022-12-05T09:18:22.624Z,956.14
2022-12-05T09:19:24.615Z,956.19
2022-12-05T09:20:26.624Z,956.21
2022-12-05T09:21:28.618Z,956.2
2022-12-05T09:22:30.630Z,956.15
2022-12-05T09:23:32.622Z,956.16
2022-12-05T09:24:34.625Z,956.13
2022-12-05T09:25:36.689Z,956.12
2022-12-05T09:26:38.627Z,956.1
2022-12-05T09:27:40.662Z,956.07
2022-12-05T09:28:42.628Z,956.07
2022-12-05T09:29:44.634Z,956.11
2022-12-05T09:30:46.744Z,956.18
2022-12-05T09:31:48.873Z,956.19
2022-12-05T09:32:50.647Z,956.19
2022-12-05T09:33:52.686Z,956.19
2022-12-05T09:35:58.629Z,956.18
2022-12-05T09:37:16.605Z,956.17
2022-12-05T09:38:02.643Z,956.14
2022-12-05T09:40:06.644Z,956.23
2022-12-05T09:41:08.645Z,956.27
2022-12-05T09:42:10.638Z,956.3
2022-12-05T09:43:12.667Z,956.31
2022-12-05T09:44:14.651Z,956.35
2022-12-05T09:45:16.627Z,956.32
2022-12-05T09:46:18.686Z,956.27
2022-12-05T09:48:23.668Z,956.22
2022-12-05T09:49:25.643Z,956.2
2022-12-05T09:50:27.649Z,956.22
2022-12-05T09:51:29.745Z,956.22
2022-12-05T09:52:31.632Z,956.28
2022-12-05T09:53:33.685Z,956.32
2022-12-05T09:54:35.636Z,956.35
2022-12-05T09:55:37.647Z,956.34
2022-12-05T09:56:39.696Z,956.31
2022-12-05T09:57:41.644Z,956.24
2022-12-05T09:58:43.663Z,956.25
2022-12-05T09:59:45.667Z,956.2
2022-12-05T10:00:47.648Z,956.15
2022-12-05T10:01:49.774Z,956.13
2022-12-05T10:02:51.651Z,956.14
2022-12-05T10:03:53.652Z,956.11
2022-12-05T10:04:59.954Z,956.18
2022-12-05T10:05:59.698Z,956.19
2022-12-05T10:08:03.721Z,956.18
2022-12-05T10:09:05.666Z,956.15
2022-12-05T10:10:07.659Z,956.15
2022-12-05T10:11:09.713Z,956.19
2022-12-05T10:12:11.698Z,956.21
2022-12-05T10:14:50.777Z,956.15
2022-12-05T10:15:55.714Z,956.13
2022-12-05T10:16:50.859Z,956.16
2022-12-05T10:17:50.793Z,956.13
2022-12-05T10:18:50.801Z,956.1
2022-12-05T10:19:50.779Z,956.05
2022-12-05T10:20:50.790Z,956.06
2022-12-05T10:24:36.133Z,956.04
2022-12-05T10:25:39.115Z,956.04
2022-12-05T10:26:41.104Z,956
2022-12-05T10:27:43.148Z,955.99
2022-12-05T10:28:45.135Z,955.99
2022-12-05T10:29:47.111Z,955.98
2022-12-05T10:30:49.167Z,956
2022-12-05T10:31:51.314Z,956.01
2022-12-05T10:32:53.111Z,956.03
2022-12-05T10:33:55.169Z,956.09
2022-12-05T10:34:57.274Z,956.06
2022-12-05T10:35:59.119Z,956.07
2022-12-05T10:37:01.122Z,956.13
2022-12-05T10:38:04.138Z,956.08
2022-12-05T10:39:11.272Z,956.12
2022-12-05T10:40:09.136Z,956.13
2022-12-05T10:41:11.120Z,956.14
2022-12-05T10:42:13.122Z,956.13
2022-12-05T10:43:15.146Z,956.16
2022-12-05T10:44:17.172Z,956.18
2022-12-05T10:45:19.127Z,956.19
2022-12-05T10:46:21.143Z,956.2
2022-12-05T10:47:23.137Z,956.18
2022-12-05T10:48:25.132Z,956.12
2022-12-05T10:49:27.162Z,956.16
2022-12-05T10:50:30.130Z,956.19
2022-12-05T10:51:37.341Z,956.16
2022-12-05T10:52:34.122Z,956.17
2022-12-05T10:53:36.125Z,956.17
2022-12-05T10:54:38.170Z,956.16
2022-12-05T10:55:40.128Z,956.16
2022-12-05T10:56:42.188Z,956.13
2022-12-05T10:57:58.826Z,956.14
2022-12-05T10:59:57.883Z,956.08
2022-12-05T11:00:59.843Z,956.08
2022-12-05T11:02:05.052Z,956.06
2022-12-05T11:03:06.864Z,956.03
2022-12-05T11:04:13.472Z,956.05
2022-12-05T11:05:10.910Z,956.04
2022-12-05T11:06:12.849Z,956.06
2022-12-05T11:07:14.854Z,956.05
2022-12-05T11:08:16.880Z,956.04
2022-12-05T11:09:18.891Z,956.06
2022-12-05T11:10:26.134Z,956.08
2022-12-05T11:11:22.859Z,956.08
2022-12-05T11:12:24.851Z,956.1
2022-12-05T11:13:26.853Z,956.07
2022-12-05T11:14:28.913Z,956.06
2022-12-05T11:15:30.852Z,956.06
2022-12-05T11:16:33.072Z,956.08
2022-12-05T11:17:35.879Z,956.05
2022-12-05T11:18:37.852Z,956.05
2022-12-05T11:19:39.895Z,956.04
2022-12-05T11:20:41.866Z,956.07
2022-12-05T11:21:43.863Z,956.06
2022-12-05T11:22:48.657Z,956.04
2022-12-05T11:23:47.868Z,956.06
2022-12-05T11:24:49.859Z,956.04
2022-12-05T11:25:51.892Z,956.04
2022-12-05T11:26:53.861Z,956.03
2022-12-05T11:27:59.724Z,956.08
2022-12-05T11:28:57.862Z,956.1
2022-12-05T11:29:59.914Z,956.11
2022-12-05T11:31:01.988Z,956.08
2022-12-05T11:32:03.889Z,956.13
2022-12-05T11:33:06.867Z,956.12
2022-12-05T11:34:08.866Z,956.11
2022-12-05T11:35:47.604Z,956.13
2022-12-05T11:36:13.626Z,956.18
2022-12-05T11:37:15.641Z,956.15
2022-12-05T11:38:17.622Z,956.11
2022-12-05T11:39:19.626Z,956.07
2022-12-05T11:40:26.729Z,956.07
2022-12-05T11:41:23.630Z,956.06
2022-12-05T11:42:25.626Z,956.04
2022-12-05T11:43:27.624Z,956.05
2022-12-05T11:44:29.627Z,956.03
2022-12-05T11:45:31.655Z,956.04
2022-12-05T11:46:33.678Z,956.05
2022-12-05T11:47:35.650Z,956.04
2022-12-05T11:48:37.646Z,956.05
2022-12-05T11:49:39.638Z,956.06
2022-12-05T11:50:41.651Z,955.99
2022-12-05T11:51:43.630Z,956.01
2022-12-05T11:52:45.645Z,956
2022-12-05T11:53:47.628Z,956.02
2022-12-05T11:55:04.890Z,955.98
2022-12-05T11:55:51.648Z,955.99
2022-12-05T11:56:53.639Z,956
2022-12-05T11:57:55.666Z,956.03
2022-12-05T11:58:58.638Z,956.04
2022-12-05T12:00:01.285Z,956.01
2022-12-05T12:01:02.681Z,956.01
2022-12-05T12:02:08.763Z,956.01
2022-12-05T12:03:11.742Z,956.03
2022-12-05T12:04:13.626Z,956.04
2022-12-05T12:05:15.823Z,956.03
2022-12-05T12:06:17.640Z,956.05
2022-12-05T12:07:19.639Z,956.03
2022-12-05T12:08:21.757Z,956.03
2022-12-05T12:09:23.637Z,956.06
2022-12-05T12:10:25.698Z,956.05
2022-12-05T12:11:27.647Z,956.02
2022-12-05T12:12:29.665Z,955.98
2022-12-05T12:13:32.651Z,955.99
2022-12-05T12:14:34.639Z,956
2022-12-05T12:15:36.648Z,955.98
2022-12-05T12:16:38.736Z,955.94
2022-12-05T12:17:40.654Z,955.89
2022-12-05T12:18:42.661Z,955.89
2022-12-05T12:19:44.657Z,955.9
2022-12-05T12:20:46.649Z,955.89
2022-12-05T12:21:48.686Z,955.88
2022-12-05T12:22:50.648Z,955.91
2022-12-05T12:23:52.706Z,955.9
2022-12-05T12:24:56.003Z,955.88
2022-12-05T12:25:57.658Z,955.86
2022-12-05T12:26:59.652Z,955.86
2022-12-05T12:28:04.663Z,955.85
2022-12-05T12:29:04.694Z,955.85
2022-12-05T12:30:07.689Z,955.87
2022-12-05T12:31:23.121Z,955.89
2022-12-05T12:32:12.795Z,955.89
2022-12-05T12:33:14.669Z,955.86
2022-12-05T12:34:16.720Z,955.85
2022-12-05T12:35:18.657Z,955.86
2022-12-05T12:36:20.658Z,955.87
2022-12-05T12:37:22.657Z,955.87
2022-12-05T12:38:24.664Z,955.88
2022-12-05T12:39:26.692Z,955.88
2022-12-05T12:40:28.667Z,955.88
2022-12-05T12:41:30.664Z,955.88
2022-12-05T12:42:32.659Z,955.88
2022-12-05T12:43:52.693Z,955.9
2022-12-05T12:44:37.732Z,955.88
2022-12-05T12:45:39.773Z,955.87
2022-12-05T12:46:41.679Z,955.84
2022-12-05T12:47:44.665Z,955.82
2022-12-05T12:48:47.716Z,955.8
2022-12-05T12:49:49.727Z,955.76
2022-12-05T12:50:51.659Z,955.73
2022-12-05T12:51:53.672Z,955.71
2022-12-05T12:53:57.805Z,955.72
2022-12-05T12:55:04.576Z,955.72
2022-12-05T12:56:01.679Z,955.74
2022-12-05T12:57:08.126Z,955.71
2022-12-05T12:58:07.686Z,955.7
2022-12-05T12:59:09.696Z,955.72
2022-12-05T13:00:11.701Z,955.66
2022-12-05T13:02:15.774Z,955.66
2022-12-05T13:03:17.686Z,955.65
2022-12-05T13:04:19.747Z,955.65
2022-12-05T13:05:21.724Z,955.65
2022-12-05T13:06:23.703Z,955.63
2022-12-05T13:07:50.965Z,955.63
2022-12-05T13:08:50.900Z,955.63
2022-12-05T13:10:50.895Z,955.6
2022-12-05T13:11:50.965Z,955.64
2022-12-05T13:12:50.896Z,955.65
2022-12-05T13:13:50.900Z,955.64
2022-12-05T13:15:50.929Z,955.67
2022-12-05T13:17:46.689Z,955.7
2022-12-05T13:18:48.689Z,955.68
2022-12-05T13:21:55.363Z,955.68
2022-12-05T13:22:57.400Z,955.69
2022-12-05T13:23:59.369Z,955.68
2022-12-05T13:25:01.614Z,955.67
2022-12-05T13:26:04.375Z,955.68
2022-12-05T13:31:29.917Z,955.66
2022-12-05T13:35:05.853Z,955.62
2022-12-05T13:35:26.345Z,955.63
2022-12-05T13:36:28.377Z,955.62
2022-12-05T13:37:31.375Z,955.68
2022-12-05T13:38:34.367Z,955.66
2022-12-05T13:39:36.353Z,955.62
2022-12-05T13:40:38.436Z,955.66
2022-12-05T13:41:40.357Z,955.65
2022-12-05T13:49:11.660Z,955.72